createdAt,value
2022-11-13T00:00:56.268Z,4.72
2022-11-13T00:03:23.376Z,4.72
2022-11-13T00:06:01.556Z,4.70
2022-11-13T00:08:28.120Z,4.66
2022-11-13T00:11:06.224Z,4.66
2022-11-13T00:13:33.563Z,4.65
2022-11-13T00:16:01.791Z,4.66
2022-11-13T00:18:30.340Z,4.63
2022-11-13T00:20:58.377Z,4.62
2022-11-13T00:23:24.890Z,4.62
2022-11-13T00:25:51.355Z,4.59
2022-11-13T00:28:17.827Z,4.57
2022-11-13T00:30:44.286Z,4.57
2022-11-13T00:33:10.785Z,4.59
2022-11-13T00:35:37.368Z,4.59
2022-11-13T00:38:03.775Z,4.55
2022-11-13T00:40:30.292Z,4.53
2022-11-13T00:42:56.727Z,4.51
2022-11-13T00:45:23.183Z,4.50
2022-11-13T00:47:51.123Z,4.50
2022-11-13T00:50:17.619Z,4.46
2022-11-13T00:52:44.153Z,4.44
2022-11-13T00:55:11.829Z,4.41
2022-11-13T00:57:38.350Z,4.35
2022-11-13T01:00:05.545Z,4.30
2022-11-13T01:02:32.711Z,4.25
2022-11-13T01:04:59.143Z,4.20
2022-11-13T01:07:25.586Z,4.19
2022-11-13T01:09:52.314Z,4.19
2022-11-13T01:12:18.806Z,4.18
2022-11-13T01:14:45.242Z,4.19
2022-11-13T01:17:11.696Z,4.20
2022-11-13T01:19:38.210Z,4.17
2022-11-13T01:22:04.709Z,4.16
2022-11-13T01:24:31.504Z,4.17
2022-11-13T01:26:57.950Z,4.16
2022-11-13T01:29:24.388Z,4.14
2022-11-13T01:31:50.800Z,4.14
2022-11-13T01:34:18.028Z,4.12
2022-11-13T01:36:44.517Z,4.11
2022-11-13T01:39:12.190Z,4.08
2022-11-13T01:41:39.336Z,4.05
2022-11-13T01:44:11.400Z,4.04
2022-11-13T01:46:42.520Z,4.02
2022-11-13T01:49:17.949Z,4.02
2022-11-13T01:51:56.552Z,4.00
2022-11-13T01:54:29.161Z,3.97
2022-11-13T01:56:56.674Z,3.92
2022-11-13T01:59:27.305Z,3.84
2022-11-13T02:01:56.257Z,3.77
2022-11-13T02:04:23.409Z,3.72
2022-11-13T02:06:54.501Z,3.69
2022-11-13T02:09:26.625Z,3.69
2022-11-13T02:11:53.992Z,3.67
2022-11-13T02:14:22.740Z,3.64
2022-11-13T02:16:52.389Z,3.65
2022-11-13T02:19:35.246Z,3.63
2022-11-13T02:22:20.166Z,3.61
2022-11-13T02:24:49.898Z,3.64
2022-11-13T02:27:28.011Z,3.64
2022-11-13T02:29:54.517Z,3.62
2022-11-13T02:32:20.976Z,3.60
2022-11-13T02:34:47.410Z,3.58
2022-11-13T02:37:13.837Z,3.57
2022-11-13T02:39:40.575Z,3.56
2022-11-13T02:42:06.942Z,3.54
2022-11-13T02:44:33.427Z,3.52
2022-11-13T02:46:59.838Z,3.46
2022-11-13T02:49:26.817Z,3.40
2022-11-13T02:51:53.218Z,3.36
2022-11-13T02:54:19.677Z,3.28
2022-11-13T02:56:46.199Z,3.23
2022-11-13T02:59:12.663Z,3.21
2022-11-13T03:01:39.098Z,3.21
2022-11-13T03:04:05.722Z,3.19
2022-11-13T03:06:32.134Z,3.17
2022-11-13T03:08:58.691Z,3.18
2022-11-13T03:11:25.070Z,3.21
2022-11-13T03:13:51.576Z,3.22
2022-11-13T03:16:17.964Z,3.25
2022-11-13T03:18:44.364Z,3.26
2022-11-13T03:21:13.702Z,3.26
2022-11-13T03:23:41.555Z,3.26
2022-11-13T03:26:11.053Z,3.26
2022-11-13T03:28:37.956Z,3.24
2022-11-13T03:31:05.300Z,3.23
2022-11-13T03:33:32.311Z,3.21
2022-11-13T03:35:59.148Z,3.22
2022-11-13T03:38:25.819Z,3.21
2022-11-13T03:40:53.279Z,3.20
2022-11-13T03:43:19.811Z,3.20
2022-11-13T03:45:47.174Z,3.17
2022-11-13T03:48:15.307Z,3.17
2022-11-13T03:50:51.783Z,3.17
2022-11-13T03:53:18.621Z,3.11
2022-11-13T03:55:45.286Z,3.07
2022-11-13T03:58:11.996Z,3.06
2022-11-13T04:00:40.267Z,3.11
2022-11-13T04:03:07.778Z,3.12
2022-11-13T04:05:34.521Z,3.10
2022-11-13T04:08:00.917Z,3.07
2022-11-13T04:10:27.387Z,3.05
2022-11-13T04:12:53.858Z,3.02
2022-11-13T04:15:20.309Z,2.99
2022-11-13T04:17:46.802Z,2.95
2022-11-13T04:20:13.330Z,2.95
2022-11-13T04:22:39.800Z,2.96
2022-11-13T04:25:07.132Z,2.97
2022-11-13T04:27:33.681Z,2.98
2022-11-13T04:30:00.124Z,2.98
2022-11-13T04:32:26.595Z,2.99
2022-11-13T04:34:53.173Z,3.00
2022-11-13T04:37:19.788Z,3.00
2022-11-13T04:39:46.161Z,3.04
2022-11-13T04:42:31.441Z,3.04
2022-11-13T04:44:57.855Z,3.05
2022-11-13T04:47:24.362Z,3.09
2022-11-13T04:49:50.897Z,3.09
2022-11-13T04:52:17.477Z,3.06
2022-11-13T04:54:43.930Z,3.04
2022-11-13T04:57:10.377Z,3.01
2022-11-13T04:59:36.785Z,3.00
2022-11-13T05:02:04.393Z,3.00
2022-11-13T05:04:31.606Z,2.98
2022-11-13T05:06:58.945Z,2.96
2022-11-13T05:09:25.376Z,2.93
2022-11-13T05:11:51.811Z,2.89
2022-11-13T05:14:18.447Z,2.84
2022-11-13T05:16:44.891Z,2.78
2022-11-13T05:19:12.092Z,2.73
2022-11-13T05:21:39.514Z,2.72
2022-11-13T05:24:06.438Z,2.70
2022-11-13T05:26:33.038Z,2.67
2022-11-13T05:29:00.387Z,2.66
2022-11-13T05:31:27.829Z,2.69
2022-11-13T05:33:55.761Z,2.66
2022-11-13T05:36:22.794Z,2.67
2022-11-13T05:38:49.593Z,2.62
2022-11-13T05:41:17.175Z,2.55
2022-11-13T05:43:44.563Z,2.54
2022-11-13T05:46:21.635Z,2.53
2022-11-13T05:48:52.464Z,2.53
2022-11-13T05:51:21.620Z,2.54
2022-11-13T05:53:48.458Z,2.54
2022-11-13T05:56:19.684Z,2.51
2022-11-13T05:58:58.931Z,2.48
2022-11-13T06:01:32.554Z,2.51
2022-11-13T06:04:00.911Z,2.56
2022-11-13T06:06:28.814Z,2.55
2022-11-13T06:08:57.108Z,2.58
2022-11-13T06:11:25.351Z,2.57
2022-11-13T06:13:53.208Z,2.56
2022-11-13T06:16:22.809Z,2.55
2022-11-13T06:18:49.938Z,2.54
2022-11-13T06:21:21.686Z,2.52
2022-11-13T06:23:48.586Z,2.53
2022-11-13T06:26:27.475Z,2.52
2022-11-13T06:28:54.301Z,2.52
2022-11-13T06:31:26.855Z,2.46
2022-11-13T06:33:53.821Z,2.46
2022-11-13T06:36:26.092Z,2.41
2022-11-13T06:38:52.666Z,2.41
2022-11-13T06:41:22.635Z,2.39
2022-11-13T06:43:49.564Z,2.38
2022-11-13T06:46:21.215Z,2.34
2022-11-13T06:48:47.823Z,2.33
2022-11-13T06:51:17.268Z,2.31
2022-11-13T06:53:46.403Z,2.29
2022-11-13T06:56:13.664Z,2.27
2022-11-13T06:58:40.581Z,2.26
2022-11-13T07:01:12.106Z,2.27
2022-11-13T07:03:38.958Z,2.32
2022-11-13T07:06:07.659Z,2.31
2022-11-13T07:08:34.791Z,2.31
2022-11-13T07:11:01.404Z,2.30
2022-11-13T07:13:29.012Z,2.34
2022-11-13T07:16:09.403Z,2.36
2022-11-13T07:18:40.018Z,2.40
2022-11-13T07:21:08.902Z,2.45
2022-11-13T07:23:37.333Z,2.45
2022-11-13T07:26:04.494Z,2.49
2022-11-13T07:28:31.241Z,2.55
2022-11-13T07:31:01.847Z,2.63
2022-11-13T07:33:28.492Z,2.69
2022-11-13T07:35:58.880Z,2.74
2022-11-13T07:38:25.570Z,2.79
2022-11-13T07:40:52.158Z,2.82
2022-11-13T07:43:22.180Z,2.84
2022-11-13T07:45:54.747Z,2.93
2022-11-13T07:48:22.809Z,2.95
2022-11-13T07:50:50.562Z,2.98
2022-11-13T07:53:17.706Z,3.02
2022-11-13T07:55:44.141Z,3.05
2022-11-13T07:58:10.914Z,3.10
2022-11-13T08:00:38.315Z,3.14
2022-11-13T08:03:14.038Z,3.20
2022-11-13T08:05:43.390Z,3.24
2022-11-13T08:08:13.950Z,3.27
2022-11-13T08:10:40.611Z,3.30
2022-11-13T08:13:12.584Z,3.36
2022-11-13T08:15:39.094Z,3.42
2022-11-13T08:18:06.440Z,3.47
2022-11-13T08:20:33.715Z,3.52
2022-11-13T08:23:01.956Z,3.54
2022-11-13T08:25:30.404Z,3.62
2022-11-13T08:27:57.314Z,3.70
2022-11-13T08:30:25.899Z,3.77
2022-11-13T08:32:52.873Z,3.87
2022-11-13T08:35:21.322Z,3.95
2022-11-13T08:37:49.518Z,4.04
2022-11-13T08:40:16.051Z,4.13
2022-11-13T08:42:42.463Z,4.21
2022-11-13T08:45:09.609Z,4.41
2022-11-13T08:47:36.554Z,4.57
2022-11-13T08:50:04.098Z,4.69
2022-11-13T08:52:31.666Z,4.81
2022-11-13T08:55:02.916Z,4.92
2022-11-13T08:57:30.503Z,5.05
2022-11-13T08:59:57.486Z,5.08
2022-11-13T09:02:25.141Z,5.15
2022-11-13T09:04:51.542Z,5.23
2022-11-13T09:07:19.515Z,5.28
2022-11-13T09:09:48.481Z,5.42
2022-11-13T09:12:16.080Z,5.57
2022-11-13T09:14:42.571Z,5.71
2022-11-13T09:17:17.881Z,5.83
2022-11-13T09:19:45.598Z,5.94
2022-11-13T09:22:12.702Z,6.08
2022-11-13T09:24:39.065Z,6.17
2022-11-13T09:27:05.643Z,6.31
2022-11-13T09:29:32.116Z,6.44
2022-11-13T09:31:58.519Z,6.51
2022-11-13T09:34:26.399Z,6.63
2022-11-13T09:36:52.892Z,6.74
2022-11-13T09:39:19.568Z,6.81
2022-11-13T09:41:52.517Z,6.88
2022-11-13T09:44:31.162Z,6.92
2022-11-13T09:47:08.814Z,7.00
2022-11-13T09:49:59.971Z,7.13
2022-11-13T09:52:46.895Z,7.24
2022-11-13T09:55:18.671Z,7.33
2022-11-13T09:57:49.277Z,7.43
2022-11-13T10:00:21.831Z,7.49
2022-11-13T10:03:07.225Z,7.61
2022-11-13T10:05:43.056Z,7.68
2022-11-13T10:08:28.039Z,7.80
2022-11-13T10:11:07.007Z,7.93
2022-11-13T10:13:42.485Z,8.00
2022-11-13T10:16:31.861Z,8.04
2022-11-13T10:19:21.330Z,8.12
2022-11-13T10:22:26.010Z,8.17
2022-11-13T10:24:47.058Z,8.23
2022-11-13T10:27:15.206Z,8.27
2022-11-13T10:29:48.636Z,8.38
2022-11-13T10:32:24.286Z,8.47
2022-11-13T10:34:57.999Z,8.61
2022-11-13T10:37:51.876Z,8.79
2022-11-13T10:40:30.385Z,8.91
2022-11-13T10:43:18.469Z,8.99
2022-11-13T10:46:02.057Z,9.11
2022-11-13T10:48:35.763Z,9.21
2022-11-13T10:51:05.644Z,9.33
2022-11-13T10:53:40.967Z,9.46
2022-11-13T10:56:31.893Z,9.58
2022-11-13T10:59:16.384Z,9.70
2022-11-13T11:01:44.850Z,9.74
2022-11-13T11:04:24.623Z,9.82
2022-11-13T11:09:41.156Z,9.94
2022-11-13T11:12:29.077Z,10.01
2022-11-13T11:14:56.891Z,10.10
2022-11-13T11:17:29.301Z,10.20
2022-11-13T11:20:02.746Z,10.23
2022-11-13T11:22:32.956Z,10.30
2022-11-13T11:25:06.108Z,10.31
2022-11-13T11:27:45.520Z,10.41
2022-11-13T11:30:26.742Z,10.48
2022-11-13T11:33:36.786Z,10.59
2022-11-13T11:36:17.379Z,10.69
2022-11-13T11:39:10.941Z,10.69
2022-11-13T11:41:46.232Z,10.83
2022-11-13T11:44:21.638Z,10.91
2022-11-13T11:46:48.780Z,10.98
2022-11-13T11:49:15.767Z,11.02
2022-11-13T11:52:10.361Z,11.13
2022-11-13T11:54:43.682Z,11.24
2022-11-13T11:57:44.758Z,11.28
2022-11-13T12:00:20.166Z,11.31
2022-11-13T12:02:55.965Z,11.31
2022-11-13T12:05:30.405Z,11.33
2022-11-13T12:08:09.258Z,11.37
2022-11-13T12:10:47.057Z,11.43
2022-11-13T12:13:39.511Z,11.39
2022-11-13T12:16:27.348Z,11.43
2022-11-13T12:19:26.822Z,11.51
2022-11-13T12:21:56.597Z,11.55
2022-11-13T12:24:45.002Z,11.65
2022-11-13T12:27:34.099Z,11.68
2022-11-13T12:30:15.582Z,11.83
2022-11-13T12:33:04.886Z,11.90
2022-11-13T12:35:37.248Z,11.93
2022-11-13T12:38:27.550Z,11.99
2022-11-13T12:41:33.382Z,12.09
2022-11-13T12:44:40.962Z,12.10
2022-11-13T12:47:12.715Z,12.17
2022-11-13T12:49:40.253Z,12.22
2022-11-13T12:52:16.071Z,12.25
2022-11-13T12:54:43.144Z,12.33
2022-11-13T12:57:12.696Z,12.43
2022-11-13T12:59:45.779Z,12.52
2022-11-13T13:02:43.482Z,12.50
2022-11-13T13:05:35.809Z,12.55
2022-11-13T13:08:40.216Z,12.62
2022-11-13T13:11:45.923Z,12.59
2022-11-13T13:14:15.993Z,12.57
2022-11-13T13:16:42.423Z,12.56
2022-11-13T13:19:31.303Z,12.57
2022-11-13T13:21:57.916Z,12.60
2022-11-13T13:24:32.243Z,12.59
2022-11-13T13:26:59.663Z,12.59
2022-11-13T13:29:27.739Z,12.60
2022-11-13T13:32:21.041Z,12.65
2022-11-13T13:34:53.858Z,12.67
2022-11-13T13:37:52.734Z,12.72
2022-11-13T13:40:22.259Z,12.74
2022-11-13T13:43:13.978Z,12.74
2022-11-13T13:46:00.614Z,12.78
2022-11-13T13:48:30.095Z,12.76
2022-11-13T13:51:00.377Z,12.68
2022-11-13T13:53:36.322Z,12.67
2022-11-13T13:56:04.413Z,12.69
2022-11-13T13:58:35.087Z,12.70
2022-11-13T14:01:20.369Z,12.78
2022-11-13T14:03:47.137Z,12.80
2022-11-13T14:06:24.506Z,12.80
2022-11-13T14:08:50.928Z,12.74
2022-11-13T14:11:19.082Z,12.72
2022-11-13T14:13:45.535Z,12.73
2022-11-13T14:16:11.986Z,12.73
2022-11-13T14:18:38.362Z,12.73
2022-11-13T14:21:16.117Z,12.73
2022-11-13T14:23:51.448Z,12.75
2022-11-13T14:26:19.724Z,12.72
2022-11-13T14:28:59.040Z,12.67
2022-11-13T14:31:30.193Z,12.54
2022-11-13T14:34:00.107Z,12.43
2022-11-13T14:36:30.066Z,12.32
2022-11-13T14:38:56.981Z,12.24
2022-11-13T14:41:26.585Z,12.15
2022-11-13T14:43:54.333Z,12.10
2022-11-13T14:46:45.917Z,12.08
2022-11-13T14:49:27.294Z,12.02
2022-11-13T14:51:57.987Z,11.96
2022-11-13T14:55:08.209Z,11.86
2022-11-13T14:57:24.708Z,11.78
2022-11-13T14:59:51.123Z,11.73
2022-11-13T15:02:17.822Z,11.73
2022-11-13T15:04:44.200Z,11.67
2022-11-13T15:07:31.136Z,11.55
2022-11-13T15:09:59.184Z,11.46
2022-11-13T15:12:26.043Z,11.37
2022-11-13T15:14:52.945Z,11.33
2022-11-13T15:17:22.115Z,11.23
2022-11-13T15:19:52.851Z,11.11
2022-11-13T15:22:27.127Z,10.98
2022-11-13T15:24:54.693Z,10.98
2022-11-13T15:27:21.110Z,10.98
2022-11-13T15:29:47.509Z,10.91
2022-11-13T15:32:15.175Z,10.81
2022-11-13T15:34:41.842Z,10.76
2022-11-13T15:37:14.178Z,10.67
2022-11-13T15:39:40.576Z,10.56
2022-11-13T15:42:13.710Z,10.42
2022-11-13T15:44:40.852Z,10.32
2022-11-13T15:47:26.495Z,10.19
2022-11-13T15:50:12.305Z,10.05
2022-11-13T15:52:42.586Z,9.90
2022-11-13T15:55:31.553Z,9.81
2022-11-13T15:57:59.329Z,9.77
2022-11-13T16:00:28.121Z,9.96
2022-11-13T16:02:56.555Z,10.30
2022-11-13T16:05:25.509Z,10.44
2022-11-13T16:07:53.353Z,10.43
2022-11-13T16:10:25.002Z,10.39
2022-11-13T16:12:52.568Z,10.28
2022-11-13T16:15:19.939Z,10.17
2022-11-13T16:17:50.638Z,10.03
2022-11-13T16:20:17.898Z,9.86
2022-11-13T16:22:44.813Z,9.75
2022-11-13T16:25:17.005Z,9.65
2022-11-13T16:27:45.445Z,9.55
2022-11-13T16:30:21.053Z,9.44
2022-11-13T16:32:47.751Z,9.34
2022-11-13T16:35:16.069Z,9.18
2022-11-13T16:37:43.279Z,9.05
2022-11-13T16:40:25.790Z,8.93
2022-11-13T16:42:52.860Z,8.87
2022-11-13T16:45:20.742Z,8.78
2022-11-13T16:47:47.765Z,8.69
2022-11-13T16:50:19.742Z,8.62
2022-11-13T16:52:46.179Z,8.54
2022-11-13T16:55:13.148Z,8.48
2022-11-13T16:57:40.070Z,8.41
2022-11-13T17:00:08.376Z,8.33
2022-11-13T17:02:34.885Z,8.29
2022-11-13T17:05:01.415Z,8.21
2022-11-13T17:07:27.956Z,8.16
2022-11-13T17:10:24.274Z,8.13
2022-11-13T17:12:42.242Z,8.08
2022-11-13T17:15:09.833Z,8.04
2022-11-13T17:17:36.280Z,8.00
2022-11-13T17:20:03.002Z,7.95
2022-11-13T17:22:29.507Z,7.90
2022-11-13T17:24:55.925Z,7.87
2022-11-13T17:27:22.306Z,7.82
2022-11-13T17:29:48.823Z,7.75
2022-11-13T17:32:15.275Z,7.70
2022-11-13T17:34:43.330Z,7.64
2022-11-13T17:37:10.255Z,7.60
2022-11-13T17:39:36.684Z,7.54
2022-11-13T17:42:03.172Z,7.48
2022-11-13T17:44:29.784Z,7.44
2022-11-13T17:46:56.246Z,7.40
2022-11-13T17:49:23.223Z,7.32
2022-11-13T17:51:49.725Z,7.28
2022-11-13T17:54:16.779Z,7.25
2022-11-13T17:56:43.528Z,7.20
2022-11-13T17:59:11.111Z,7.12
2022-11-13T18:01:37.561Z,7.06
2022-11-13T18:04:04.425Z,7.02
2022-11-13T18:06:30.990Z,6.98
2022-11-13T18:08:57.546Z,6.91
2022-11-13T18:11:26.235Z,6.87
2022-11-13T18:13:53.618Z,6.81
2022-11-13T18:16:26.323Z,6.80
2022-11-13T18:18:58.297Z,6.76
2022-11-13T18:21:29.296Z,6.72
2022-11-13T18:24:17.535Z,6.69
2022-11-13T18:26:46.906Z,6.64
2022-11-13T18:29:13.488Z,6.58
2022-11-13T18:31:40.120Z,6.56
2022-11-13T18:34:07.671Z,6.56
2022-11-13T18:36:34.912Z,6.59
2022-11-13T18:39:05.682Z,6.72
2022-11-13T18:41:32.793Z,6.82
2022-11-13T18:43:59.451Z,6.86
2022-11-13T18:46:26.861Z,6.86
2022-11-13T18:48:56.588Z,6.87
2022-11-13T18:51:25.768Z,6.88
2022-11-13T18:53:52.956Z,6.78
2022-11-13T18:56:23.029Z,6.68
2022-11-13T18:58:51.204Z,6.60
2022-11-13T19:01:24.780Z,6.57
2022-11-13T19:04:21.154Z,6.60
2022-11-13T19:06:39.945Z,6.52
2022-11-13T19:09:14.668Z,6.44
2022-11-13T19:11:41.662Z,6.36
2022-11-13T19:14:09.794Z,6.31
2022-11-13T19:16:38.668Z,6.24
2022-11-13T19:19:26.816Z,6.20
2022-11-13T19:21:53.441Z,6.17
2022-11-13T19:24:19.899Z,6.13
2022-11-13T19:26:46.485Z,6.09
2022-11-13T19:29:13.675Z,6.04
2022-11-13T19:31:40.373Z,5.98
2022-11-13T19:34:08.026Z,5.91
2022-11-13T19:36:35.935Z,5.88
2022-11-13T19:39:03.303Z,5.85
2022-11-13T19:41:30.387Z,5.83
2022-11-13T19:44:00.912Z,5.80
2022-11-13T19:46:29.087Z,5.77
2022-11-13T19:48:55.646Z,5.73
2022-11-13T19:51:28.324Z,5.67
2022-11-13T19:53:59.946Z,5.65
2022-11-13T19:56:30.670Z,5.64
2022-11-13T19:58:57.439Z,5.63
2022-11-13T20:01:26.800Z,5.58
2022-11-13T20:03:58.569Z,5.53
2022-11-13T20:06:26.284Z,5.51
2022-11-13T20:08:52.947Z,5.48
2022-11-13T20:11:20.440Z,5.45
2022-11-13T20:13:46.893Z,5.45
2022-11-13T20:16:15.277Z,5.41
2022-11-13T20:18:42.703Z,5.39
2022-11-13T20:21:09.815Z,5.38
2022-11-13T20:23:36.970Z,5.34
2022-11-13T20:26:10.282Z,5.31
2022-11-13T20:28:36.681Z,5.26
2022-11-13T20:31:16.418Z,5.25
2022-11-13T20:33:43.233Z,5.20
2022-11-13T20:36:10.837Z,5.16
2022-11-13T20:38:38.263Z,5.14
2022-11-13T20:41:06.543Z,5.13
2022-11-13T20:43:33.372Z,5.12
2022-11-13T20:46:11.241Z,5.08
2022-11-13T20:48:46.206Z,5.04
2022-11-13T20:51:17.685Z,5.01
2022-11-13T20:53:44.179Z,4.99
2022-11-13T20:56:14.432Z,4.96
2022-11-13T20:58:41.828Z,4.93
2022-11-13T21:01:11.094Z,4.90
2022-11-13T21:03:41.660Z,4.87
2022-11-13T21:06:10.759Z,4.85
2022-11-13T21:08:40.127Z,4.84
2022-11-13T21:11:07.955Z,4.80
2022-11-13T21:13:35.771Z,4.80
2022-11-13T21:16:09.752Z,4.78
2022-11-13T21:18:37.180Z,4.76
2022-11-13T21:21:05.989Z,4.73
2022-11-13T21:23:32.491Z,4.75
2022-11-13T21:26:01.105Z,4.75
2022-11-13T21:28:32.317Z,4.78
2022-11-13T21:31:04.200Z,4.81
2022-11-13T21:33:36.276Z,4.84
2022-11-13T21:36:14.915Z,4.85
2022-11-13T21:38:42.529Z,4.87
2022-11-13T21:41:23.158Z,4.88
2022-11-13T21:44:02.154Z,4.93
2022-11-13T21:46:47.004Z,4.94
2022-11-13T21:49:13.741Z,5.01
2022-11-13T21:51:42.528Z,5.06
2022-11-13T21:54:12.313Z,5.05
2022-11-13T21:56:39.023Z,5.02
2022-11-13T21:59:06.445Z,5.02
2022-11-13T22:01:38.181Z,5.04
2022-11-13T22:04:05.228Z,5.04
2022-11-13T22:06:36.072Z,5.04
2022-11-13T22:09:07.824Z,5.05
2022-11-13T22:11:37.082Z,5.06
2022-11-13T22:14:04.360Z,5.05
2022-11-13T22:16:34.511Z,5.05
2022-11-13T22:19:03.704Z,5.04
2022-11-13T22:21:31.264Z,4.98
2022-11-13T22:23:58.925Z,4.95
2022-11-13T22:26:26.826Z,4.96
2022-11-13T22:28:55.378Z,4.92
2022-11-13T22:31:27.353Z,4.91
2022-11-13T22:33:55.485Z,4.86
2022-11-13T22:36:25.543Z,4.81
2022-11-13T22:38:53.108Z,4.80
2022-11-13T22:41:23.851Z,4.77
2022-11-13T22:43:53.397Z,4.83
2022-11-13T22:46:22.922Z,4.84
2022-11-13T22:48:51.818Z,4.87
2022-11-13T22:51:26.018Z,4.88
2022-11-13T22:53:56.693Z,4.85
2022-11-13T22:56:25.192Z,4.90
2022-11-13T22:58:57.310Z,4.93
2022-11-13T23:01:26.264Z,4.93
2022-11-13T23:03:54.216Z,4.99
2022-11-13T23:06:26.469Z,4.99
2022-11-13T23:08:53.687Z,4.97
2022-11-13T23:11:26.069Z,4.93
2022-11-13T23:13:55.507Z,4.91
2022-11-13T23:16:22.892Z,4.88
2022-11-13T23:18:54.728Z,4.85
2022-11-13T23:21:23.965Z,4.80
2022-11-13T23:23:50.696Z,4.73
2022-11-13T23:26:17.901Z,4.66
2022-11-13T23:28:44.404Z,4.64
2022-11-13T23:31:11.166Z,4.59
2022-11-13T23:33:38.752Z,4.56
2022-11-13T23:36:06.490Z,4.52
2022-11-13T23:38:32.965Z,4.47
2022-11-13T23:41:00.897Z,4.45
2022-11-13T23:43:47.615Z,4.44
2022-11-13T23:46:15.110Z,4.42
2022-11-13T23:48:41.532Z,4.43
2022-11-13T23:51:08.060Z,4.43
2022-11-13T23:53:34.420Z,4.39
2022-11-13T23:56:00.855Z,4.36
2022-11-13T23:58:27.555Z,4.38
